MGGTMHTG

Guest
Details From MGGT - La Aurora Intl
To MHTG - Toncontin Intl
Flight Number -
Tags generated
Created
Modified
Stats Distance 195 nm / 361 km
Max Altitude 21,900 ft / 6,675 m
Waypoints 3
Social Downloads 0
Likes 0
Share

Download

Looking for another format? Having issues loading an existing format? Contact us
Advertisement - Login to hide

Notes

Basic altitude profile: - Ascent Rate: 2500ft/min - Ascent Speed: 250kts - Cruise Altitude: 35000ft - Cruise Speed: 420kts - Descent Rate: 1500ft/min - Descent Speed: 250kts Options: - Use NATs: yes - Use PACOTS: yes - Use low airways: yes - Use high airways: yes

Route

MGGT URNOS MHTG

ID Type Via Altitude (ft/m) Position (lat/lon) Dist (leg/tot) Name
O MGGT APT - 0 / 0 14.58330 / -90.52750 - / 0 nm La Aurora Intl
URNOS FIX - 21,900 / 6,675 14.31870 / -88.95540 92 / 92 nm
O MHTG APT - 0 / 0 14.06030 / -87.21740 102 / 195 nm Toncontin Intl

Altitude Profile

Advertisement - Login to hide

Weather


0- 5 10 15 20 25 30 35+ Temperature / °C

Clouds and Precipitation
Forecast for 2020-07-05 18:00 UTC. Updated 2 hours ago

Ground ~20,000 ft ~40,000 ft Winds

MGGT

Details ICAO MGGT (GUA)
Name La Aurora Intl
Region Guatemala
Timezone America/Guatemala (UTC-6.0)
Stats Elevation 4,952 ft / 1,509 m (AMSL)
Location 14.583300° -90.527500°
Runways 1
Magnetic Variation 0.720° E

METAR

MGGT 051700Z 02006KT 9999 SCT016 BKN200 23/17 Q1025 A3027

Decode

TAF

TAF MGGT 051100Z 0512/0612 36008KT 9999 SCT014 TX26/0520Z TN17/0512Z PROB30 0512/0516 VRB03KT 6000 BR DZ BKN012 BECMG 0516/0518 04008KT FEW018 TEMPO 0518/0604 18008KT 8000 VCTSRA SCT020TCU FEW025CB BECMG 0600/0602 03008KT SCT016

Decode

Departure Runways

ID Width Length Bearing (true/mag) Surface Threshold Overrun Markings Lighting
02 197 ft / 60 m 9,809 ft / 2,990 m 17.28° / 16.56° ASPHALT 0 ft / 0 m 184 ft / 56 m PREC-APP EDGE THRESHOLD MALS REIL-OMNI
20 197 ft / 60 m 9,809 ft / 2,990 m 197.28° / 196.56° ASPHALT 702 ft / 214 m 223 ft / 68 m PREC-APP EDGE THRESHOLD MALS REIL-OMNI

MHTG

Details ICAO MHTG (TGU)
Name Toncontin Intl
Region Honduras
Timezone America/Tegucigalpa (UTC-6.0)
Stats Elevation 3,307 ft / 1,008 m (AMSL)
Location 14.060300° -87.217400°
Runways 1
Magnetic Variation 1.020° W

METAR

MHTG 051700Z 06010KT 9999 SCT028 SCT250 26/21 Q1019 A3009

Decode

TAF

TAF MHTG 051045Z 0512/0612 04006KT 8000 FEW008 BKN026 TX28/0520Z TN17/0612Z BECMG 0514/0516 9999 SCT026 BECMG 0517/0519 SCT030TCU FEW032CB PROB30 TEMPO 0521/0601 5000 -RA SCT032CB BECMG 0601/0603 9999 NSW SCT026 SCT080 BECMG 0609/0611 BKN026

Decode

Destination Runways

ID Width Length Bearing (true/mag) Surface Threshold Overrun Markings Lighting
02 151 ft / 46 m 6,637 ft / 2,023 m 18.85° / 19.87° ASPHALT 1,161 ft / 354 m 187 ft / 57 m APP EDGE THRESHOLD REIL-OMNI
20 151 ft / 46 m 6,637 ft / 2,023 m 198.85° / 199.87° ASPHALT 0 ft / 0 m 239 ft / 73 m APP EDGE THRESHOLD REIL-OMNI

Popular Alternatives